createdAt,value
2022-12-23T00:01:28.064Z,55.43
2022-12-23T00:03:58.625Z,55.41
2022-12-23T00:06:25.875Z,57.45
2022-12-23T00:09:00.007Z,61.18
2022-12-23T00:11:28.192Z,66.51
2022-12-23T00:14:20.533Z,63.38
2022-12-23T00:16:49.585Z,58.39
2022-12-23T00:19:16.072Z,56.89
2022-12-23T00:21:42.543Z,56.79
2022-12-23T00:24:11.670Z,63.71
2022-12-23T00:26:38.995Z,67.92
2022-12-23T00:29:05.328Z,61.23
2022-12-23T00:31:32.488Z,54.33
2022-12-23T00:33:59.429Z,50.64
2022-12-23T00:36:29.602Z,52.50
2022-12-23T00:39:20.174Z,58.76
2022-12-23T00:42:05.610Z,66.40
2022-12-23T00:44:33.098Z,62.08
2022-12-23T00:46:59.462Z,54.66
2022-12-23T00:49:42.107Z,53.95
2022-12-23T00:52:16.430Z,57.96
2022-12-23T00:54:44.338Z,62.85
2022-12-23T00:57:11.410Z,66.79
2022-12-23T00:59:38.224Z,61.90
2022-12-23T01:02:23.428Z,55.21
2022-12-23T01:05:08.823Z,54.97
2022-12-23T01:07:35.997Z,58.57
2022-12-23T01:10:04.291Z,61.58
2022-12-23T01:12:30.744Z,68.02
2022-12-23T01:14:58.551Z,65.58
2022-12-23T01:17:25.555Z,59.88
2022-12-23T01:19:51.876Z,55.91
2022-12-23T01:22:18.316Z,58.31
2022-12-23T01:24:45.605Z,62.37
2022-12-23T01:27:13.242Z,65.92
2022-12-23T01:29:39.882Z,61.93
2022-12-23T01:32:06.891Z,56.81
2022-12-23T01:34:37.155Z,54.46
2022-12-23T01:37:05.677Z,57.16
2022-12-23T01:39:35.123Z,62.80
2022-12-23T01:42:20.572Z,65.23
2022-12-23T01:45:27.776Z,61.87
2022-12-23T01:48:06.715Z,58.29
2022-12-23T01:50:55.506Z,59.88
2022-12-23T01:53:35.312Z,64.50
2022-12-23T01:56:12.806Z,62.32
2022-12-23T01:58:50.066Z,59.49
2022-12-23T02:01:38.065Z,54.26
2022-12-23T02:04:12.666Z,57.30
2022-12-23T02:07:01.647Z,57.47
2022-12-23T02:09:31.721Z,57.59
2022-12-23T02:12:42.641Z,58.04
2022-12-23T02:15:37.110Z,66.60
2022-12-23T02:18:23.684Z,65.55
2022-12-23T02:21:32.177Z,62.07
2022-12-23T02:24:32.518Z,54.32
2022-12-23T02:27:22.230Z,53.94
2022-12-23T02:30:42.825Z,56.02
2022-12-23T02:33:30.050Z,60.24
2022-12-23T02:36:12.307Z,70.60
2022-12-23T02:39:06.860Z,63.70
2022-12-23T02:42:01.840Z,56.13
2022-12-23T02:45:15.021Z,53.71
2022-12-23T02:47:56.390Z,55.32
2022-12-23T02:50:37.545Z,60.07
2022-12-23T02:53:18.189Z,60.94
2022-12-23T02:55:48.503Z,66.22
2022-12-23T02:58:22.096Z,69.33
2022-12-23T03:00:50.268Z,62.78
2022-12-23T03:03:16.849Z,56.93
2022-12-23T03:05:47.951Z,51.65
2022-12-23T03:08:28.982Z,55.41
2022-12-23T03:11:05.367Z,61.30
2022-12-23T03:14:01.691Z,64.09
2022-12-23T03:17:01.634Z,63.99
2022-12-23T03:19:49.606Z,56.07
2022-12-23T03:22:16.707Z,55.67
2022-12-23T03:24:55.037Z,55.83
2022-12-23T03:27:44.599Z,61.32
2022-12-23T03:30:16.914Z,64.75
2022-12-23T03:33:00.525Z,63.92
2022-12-23T03:35:38.486Z,58.62
2022-12-23T03:38:11.264Z,52.09
2022-12-23T03:40:49.420Z,52.02
2022-12-23T03:43:46.629Z,55.79
2022-12-23T03:46:30.159Z,64.67
2022-12-23T03:49:11.066Z,63.61
2022-12-23T03:52:01.768Z,58.71
2022-12-23T03:54:45.338Z,52.21
2022-12-23T03:57:21.963Z,58.40
2022-12-23T03:59:53.563Z,58.60
2022-12-23T04:02:57.333Z,63.29
2022-12-23T04:05:37.047Z,69.57
2022-12-23T04:08:32.677Z,65.49
2022-12-23T04:11:05.427Z,56.07
2022-12-23T04:13:34.193Z,52.92
2022-12-23T04:16:02.494Z,52.88
2022-12-23T04:18:29.824Z,54.75
2022-12-23T04:20:59.286Z,56.10
2022-12-23T04:23:28.481Z,57.54
2022-12-23T04:25:55.018Z,58.06
2022-12-23T04:28:23.710Z,58.87
2022-12-23T04:30:51.042Z,60.63
2022-12-23T04:33:18.290Z,72.59
2022-12-23T04:35:45.321Z,71.56
2022-12-23T04:38:11.841Z,62.13
2022-12-23T04:40:38.307Z,56.83
2022-12-23T04:43:07.163Z,54.15
2022-12-23T04:45:34.117Z,57.82
2022-12-23T04:48:02.996Z,58.30
2022-12-23T04:50:29.586Z,58.14
2022-12-23T04:52:56.069Z,57.99
2022-12-23T04:55:22.881Z,65.88
2022-12-23T04:57:50.395Z,73.86
2022-12-23T05:00:20.053Z,65.66
2022-12-23T05:02:46.473Z,58.52
2022-12-23T05:05:14.227Z,53.48
2022-12-23T05:07:40.997Z,54.09
2022-12-23T05:10:08.895Z,56.95
2022-12-23T05:12:36.541Z,56.42
2022-12-23T05:15:03.353Z,58.08
2022-12-23T05:17:29.672Z,64.25
2022-12-23T05:19:56.801Z,72.02
2022-12-23T05:22:24.577Z,63.76
2022-12-23T05:24:52.525Z,53.51
2022-12-23T05:27:19.064Z,49.01
2022-12-23T05:29:45.428Z,51.18
2022-12-23T05:32:11.776Z,52.62
2022-12-23T05:34:38.815Z,54.60
2022-12-23T05:37:09.160Z,56.89
2022-12-23T05:39:37.111Z,58.01
2022-12-23T05:42:04.086Z,58.20
2022-12-23T05:44:31.199Z,60.23
2022-12-23T05:46:58.074Z,60.93
2022-12-23T05:49:26.401Z,67.68
2022-12-23T05:51:52.922Z,75.52
2022-12-23T05:54:19.280Z,68.61
2022-12-23T05:56:45.699Z,61.02
2022-12-23T05:59:12.123Z,51.65
2022-12-23T06:01:40.127Z,52.74
2022-12-23T06:04:06.780Z,53.41
2022-12-23T06:06:33.832Z,53.32
2022-12-23T06:09:01.220Z,55.41
2022-12-23T06:11:28.424Z,56.88
2022-12-23T06:13:55.137Z,58.14
2022-12-23T06:16:21.917Z,60.50
2022-12-23T06:18:49.836Z,67.06
2022-12-23T06:21:18.735Z,73.44
2022-12-23T06:23:47.993Z,66.04
2022-12-23T06:26:14.465Z,56.88
2022-12-23T06:28:40.828Z,49.80
2022-12-23T06:31:09.619Z,50.54
2022-12-23T06:33:36.262Z,53.00
2022-12-23T06:36:04.700Z,54.38
2022-12-23T06:38:31.254Z,56.34
2022-12-23T06:40:58.461Z,59.73
2022-12-23T06:43:24.806Z,60.59
2022-12-23T06:45:51.490Z,64.87
2022-12-23T06:48:18.255Z,73.01
2022-12-23T06:50:45.829Z,64.70
2022-12-23T06:53:12.904Z,54.00
2022-12-23T06:55:41.267Z,49.19
2022-12-23T06:58:10.128Z,50.73
2022-12-23T07:00:39.228Z,51.65
2022-12-23T07:03:10.191Z,51.68
2022-12-23T07:05:38.330Z,52.73
2022-12-23T07:08:05.486Z,54.04
2022-12-23T07:10:34.213Z,55.76
2022-12-23T07:13:01.221Z,60.78
2022-12-23T07:15:29.077Z,63.38
2022-12-23T07:17:57.269Z,75.14
2022-12-23T07:20:24.189Z,68.62
2022-12-23T07:22:55.113Z,59.71
2022-12-23T07:25:21.643Z,50.54
2022-12-23T07:27:53.640Z,50.24
2022-12-23T07:30:21.361Z,52.18
2022-12-23T07:32:49.611Z,54.48
2022-12-23T07:35:17.289Z,54.51
2022-12-23T07:37:45.337Z,57.04
2022-12-23T07:40:12.199Z,58.72
2022-12-23T07:42:46.945Z,57.79
2022-12-23T07:45:13.865Z,59.98
2022-12-23T07:47:42.167Z,61.04
2022-12-23T07:50:16.932Z,67.85
2022-12-23T07:52:43.520Z,75.95
2022-12-23T07:55:10.174Z,63.28
2022-12-23T07:57:43.154Z,55.37
2022-12-23T08:00:12.302Z,54.70
2022-12-23T08:02:40.900Z,53.25
2022-12-23T08:05:09.301Z,56.49
2022-12-23T08:07:36.399Z,59.82
2022-12-23T08:10:04.474Z,58.62
2022-12-23T08:12:32.268Z,58.93
2022-12-23T08:15:05.857Z,59.51
2022-12-23T08:17:34.923Z,60.75
2022-12-23T08:20:01.591Z,67.73
2022-12-23T08:22:32.136Z,66.86
2022-12-23T08:25:01.221Z,66.99
2022-12-23T08:27:28.255Z,60.87
2022-12-23T08:29:56.566Z,52.47
2022-12-23T08:32:26.756Z,51.06
2022-12-23T08:34:56.917Z,53.24
2022-12-23T08:37:24.168Z,53.72
2022-12-23T08:39:50.945Z,54.44
2022-12-23T08:42:17.442Z,54.77
2022-12-23T08:44:44.224Z,58.16
2022-12-23T08:47:11.289Z,68.17
2022-12-23T08:49:38.076Z,69.19
2022-12-23T08:52:05.000Z,57.54
2022-12-23T08:54:31.506Z,49.29
2022-12-23T08:57:00.949Z,48.98
2022-12-23T08:59:27.505Z,52.73
2022-12-23T09:01:59.591Z,52.88
2022-12-23T09:04:26.235Z,55.87
2022-12-23T09:06:54.176Z,60.18
2022-12-23T09:09:21.107Z,60.37
2022-12-23T09:11:49.047Z,65.72
2022-12-23T09:14:15.691Z,66.63
2022-12-23T09:16:42.328Z,63.98
2022-12-23T09:19:10.196Z,60.94
2022-12-23T09:21:37.185Z,50.21
2022-12-23T09:24:07.366Z,51.62
2022-12-23T09:26:34.138Z,54.80
2022-12-23T09:29:00.663Z,57.46
2022-12-23T09:31:34.363Z,59.66
2022-12-23T09:34:02.898Z,60.98
2022-12-23T09:36:29.434Z,68.80
2022-12-23T09:38:59.405Z,71.55
2022-12-23T09:41:48.230Z,63.71
2022-12-23T09:44:50.278Z,54.88
2022-12-23T09:47:24.245Z,50.59
2022-12-23T09:50:00.161Z,53.54
2022-12-23T09:53:00.302Z,52.89
2022-12-23T09:55:56.288Z,54.59
2022-12-23T09:58:32.853Z,64.07
2022-12-23T10:01:33.325Z,71.24
2022-12-23T10:04:46.343Z,64.43
2022-12-23T10:07:50.890Z,53.39
2022-12-23T10:10:34.611Z,46.71
2022-12-23T10:13:05.423Z,49.39
2022-12-23T10:15:48.968Z,52.52
2022-12-23T10:18:34.655Z,56.76
2022-12-23T10:21:11.038Z,55.49
2022-12-23T10:23:43.056Z,59.11
2022-12-23T10:26:47.037Z,59.08
2022-12-23T10:29:21.044Z,70.04
2022-12-23T10:32:13.044Z,71.25
2022-12-23T10:35:06.153Z,57.73
2022-12-23T10:37:57.151Z,51.89
2022-12-23T10:41:08.835Z,51.33
2022-12-23T10:43:59.994Z,52.64
2022-12-23T10:47:07.615Z,57.48
2022-12-23T10:50:04.193Z,63.16
2022-12-23T10:52:45.484Z,65.54
2022-12-23T10:55:39.630Z,61.70
2022-12-23T10:58:17.909Z,54.63
2022-12-23T11:01:13.950Z,52.93
2022-12-23T11:04:16.511Z,58.36
2022-12-23T11:06:55.791Z,62.11
2022-12-23T11:10:00.988Z,71.76
2022-12-23T11:12:46.649Z,63.62
2022-12-23T11:15:34.077Z,53.47
2022-12-23T11:18:20.474Z,51.15
2022-12-23T11:21:06.257Z,50.73
2022-12-23T11:23:38.216Z,52.43
2022-12-23T11:26:14.551Z,52.89
2022-12-23T11:29:01.769Z,55.40
2022-12-23T11:31:34.835Z,59.35
2022-12-23T11:34:16.000Z,58.26
2022-12-23T11:36:45.980Z,61.37
2022-12-23T11:39:36.099Z,73.55
2022-12-23T11:42:17.127Z,70.23
2022-12-23T11:44:49.985Z,57.57
2022-12-23T11:47:21.290Z,48.86
2022-12-23T11:49:57.621Z,49.08
2022-12-23T11:52:30.802Z,51.87
2022-12-23T11:55:01.320Z,53.16
2022-12-23T11:57:45.527Z,56.66
2022-12-23T12:00:42.291Z,58.77
2022-12-23T12:03:20.072Z,57.03
2022-12-23T12:05:59.483Z,57.48
2022-12-23T12:08:37.467Z,58.41
2022-12-23T12:11:25.640Z,72.20
2022-12-23T12:14:00.891Z,67.34
2022-12-23T12:16:30.627Z,57.58
2022-12-23T12:19:16.086Z,51.39
2022-12-23T12:21:46.001Z,46.72
2022-12-23T12:24:33.757Z,44.49
2022-12-23T12:27:12.352Z,44.89
2022-12-23T12:29:56.906Z,43.56
2022-12-23T12:32:52.901Z,38.30
2022-12-23T12:35:53.481Z,39.66
2022-12-23T12:38:31.961Z,42.10
2022-12-23T12:41:31.284Z,43.86
2022-12-23T12:44:39.510Z,47.15
2022-12-23T12:47:52.801Z,54.31
2022-12-23T12:50:30.620Z,56.03
2022-12-23T12:53:11.485Z,53.75
2022-12-23T12:55:46.124Z,53.79
2022-12-23T12:58:20.441Z,53.68
2022-12-23T13:01:20.096Z,55.07
2022-12-23T13:04:06.457Z,73.81
2022-12-23T13:07:14.762Z,65.68
2022-12-23T13:10:57.855Z,53.43
2022-12-23T13:14:12.684Z,48.31
2022-12-23T13:17:37.615Z,44.52
2022-12-23T13:21:17.557Z,42.80
2022-12-23T13:24:33.933Z,41.10
2022-12-23T13:27:14.447Z,36.71
2022-12-23T13:30:12.688Z,39.47
2022-12-23T13:33:14.466Z,42.68
2022-12-23T13:36:05.090Z,44.68
2022-12-23T13:39:37.445Z,46.48
2022-12-23T13:42:18.187Z,47.48
2022-12-23T13:44:48.337Z,50.04
2022-12-23T13:47:35.341Z,50.79
2022-12-23T13:51:01.460Z,55.56
2022-12-23T13:54:05.460Z,54.69
2022-12-23T13:57:09.711Z,54.25
2022-12-23T13:59:43.777Z,61.60
2022-12-23T14:02:37.356Z,67.86
2022-12-23T14:05:33.707Z,64.59
2022-12-23T14:08:44.034Z,55.35
2022-12-23T14:11:24.479Z,48.69
2022-12-23T14:14:02.157Z,46.62
2022-12-23T14:17:19.811Z,44.95
2022-12-23T14:20:16.246Z,41.93
2022-12-23T14:23:36.987Z,39.95
2022-12-23T14:26:30.947Z,35.45
2022-12-23T14:29:11.600Z,36.50
2022-12-23T14:31:55.454Z,39.60
2022-12-23T14:34:34.610Z,42.08
2022-12-23T14:37:38.292Z,44.90
2022-12-23T14:40:36.699Z,46.59
2022-12-23T14:43:44.883Z,46.63
2022-12-23T14:46:49.329Z,46.91
2022-12-23T14:49:46.032Z,49.44
2022-12-23T14:52:39.365Z,50.13
2022-12-23T14:55:32.425Z,58.66
2022-12-23T14:58:33.529Z,69.48
2022-12-23T15:01:08.836Z,61.37
2022-12-23T15:03:45.799Z,56.49
2022-12-23T15:06:26.288Z,51.29
2022-12-23T15:08:57.526Z,47.84
2022-12-23T15:11:32.628Z,46.20
2022-12-23T15:14:11.334Z,44.18
2022-12-23T15:16:44.231Z,43.21
2022-12-23T15:19:26.704Z,43.70
2022-12-23T15:22:17.302Z,43.72
2022-12-23T15:24:49.778Z,43.43
2022-12-23T15:27:28.478Z,42.42
2022-12-23T15:30:00.028Z,42.57
2022-12-23T15:32:28.881Z,41.65
2022-12-23T15:35:05.031Z,40.27
2022-12-23T15:37:36.111Z,39.13
2022-12-23T15:40:11.953Z,38.88
2022-12-23T15:42:48.243Z,39.10
2022-12-23T15:45:36.240Z,38.71
2022-12-23T15:48:23.374Z,38.75
2022-12-23T15:50:54.303Z,38.99
2022-12-23T15:53:39.195Z,37.71
2022-12-23T15:56:20.677Z,34.51
2022-12-23T15:58:49.518Z,36.85
2022-12-23T16:01:20.603Z,39.68
2022-12-23T16:03:58.999Z,41.48
2022-12-23T16:06:35.462Z,41.65
2022-12-23T16:09:27.626Z,44.45
2022-12-23T16:11:59.281Z,47.44
2022-12-23T16:14:44.243Z,47.81
2022-12-23T16:17:20.692Z,49.76
2022-12-23T16:19:56.094Z,57.12
2022-12-23T16:22:32.495Z,65.23
2022-12-23T16:25:25.167Z,60.71
2022-12-23T16:28:12.614Z,53.81
2022-12-23T16:30:43.418Z,53.18
2022-12-23T16:33:38.216Z,50.53
2022-12-23T16:36:28.784Z,47.81
2022-12-23T16:39:21.951Z,46.03
2022-12-23T16:41:50.155Z,44.03
2022-12-23T16:44:18.975Z,41.33
2022-12-23T16:46:50.628Z,39.26
2022-12-23T16:49:21.343Z,38.85
2022-12-23T16:51:48.986Z,39.29
2022-12-23T16:54:19.235Z,39.98
2022-12-23T16:56:47.104Z,40.39
2022-12-23T16:59:14.171Z,40.53
2022-12-23T17:01:48.693Z,39.61
2022-12-23T17:04:17.955Z,39.37
2022-12-23T17:06:46.842Z,39.56
2022-12-23T17:09:14.517Z,39.47
2022-12-23T17:11:54.774Z,39.25
2022-12-23T17:14:25.144Z,40.10
2022-12-23T17:16:52.674Z,39.91
2022-12-23T17:19:27.212Z,40.18
2022-12-23T17:22:01.113Z,40.59
2022-12-23T17:24:32.225Z,40.40
2022-12-23T17:26:58.605Z,40.11
2022-12-23T17:29:28.011Z,41.14
2022-12-23T17:31:54.389Z,41.69
2022-12-23T17:34:23.759Z,43.71
2022-12-23T17:36:51.339Z,43.84
2022-12-23T17:39:24.997Z,43.24
2022-12-23T17:41:51.486Z,42.99
2022-12-23T17:44:19.259Z,42.75
2022-12-23T17:46:47.006Z,42.70
2022-12-23T17:49:15.604Z,41.48
2022-12-23T17:51:42.683Z,40.88
2022-12-23T17:54:24.383Z,41.56
2022-12-23T17:56:52.932Z,41.16
2022-12-23T17:59:22.903Z,41.25
2022-12-23T18:01:49.614Z,40.42
2022-12-23T18:04:18.472Z,39.15
2022-12-23T18:06:46.925Z,37.93
2022-12-23T18:09:13.355Z,37.18
2022-12-23T18:11:45.964Z,36.44
2022-12-23T18:14:27.491Z,36.19
2022-12-23T18:16:54.108Z,35.37
2022-12-23T18:19:21.581Z,35.61
2022-12-23T18:21:51.772Z,35.89
2022-12-23T18:24:20.900Z,36.10
2022-12-23T18:26:49.156Z,36.22
2022-12-23T18:29:15.662Z,34.77
2022-12-23T18:31:51.406Z,34.75
2022-12-23T18:34:20.664Z,36.84
2022-12-23T18:36:51.020Z,38.08
2022-12-23T18:39:20.239Z,38.53
2022-12-23T18:41:46.953Z,38.60
2022-12-23T18:44:19.890Z,38.22
2022-12-23T18:46:56.617Z,37.77
2022-12-23T18:49:24.644Z,37.08
2022-12-23T18:51:52.160Z,36.37
2022-12-23T18:54:19.725Z,36.07
2022-12-23T18:56:48.824Z,36.24
2022-12-23T18:59:24.261Z,35.38
2022-12-23T19:01:59.822Z,34.38
2022-12-23T19:04:27.190Z,33.94
2022-12-23T19:06:56.081Z,34.99
2022-12-23T19:09:23.819Z,35.08
2022-12-23T19:11:53.349Z,34.82
2022-12-23T19:14:19.859Z,34.74
2022-12-23T19:16:51.501Z,34.48
2022-12-23T19:19:21.400Z,34.16
2022-12-23T19:21:51.563Z,33.77
2022-12-23T19:24:18.152Z,33.84
2022-12-23T19:26:45.243Z,33.50
2022-12-23T19:29:19.781Z,34.20
2022-12-23T19:31:46.767Z,33.60
2022-12-23T19:34:16.187Z,33.03
2022-12-23T19:36:44.276Z,32.63
2022-12-23T19:39:18.895Z,32.77
2022-12-23T19:41:46.242Z,32.47
2022-12-23T19:44:13.822Z,32.43
2022-12-23T19:46:41.444Z,32.28
2022-12-23T19:49:08.144Z,33.64
2022-12-23T19:51:34.867Z,34.24
2022-12-23T19:54:02.450Z,33.78
2022-12-23T19:56:30.757Z,33.78
2022-12-23T19:58:59.142Z,33.85
2022-12-23T20:01:27.694Z,33.62
2022-12-23T20:03:55.713Z,33.66
2022-12-23T20:06:29.703Z,33.60
2022-12-23T20:09:00.847Z,33.57
2022-12-23T20:11:29.853Z,33.72
2022-12-23T20:13:58.003Z,33.55
2022-12-23T20:16:26.156Z,33.77
2022-12-23T20:18:54.138Z,33.82
2022-12-23T20:21:21.510Z,33.86
2022-12-23T20:23:53.884Z,33.48
2022-12-23T20:26:23.784Z,34.60
2022-12-23T20:28:50.643Z,36.09
2022-12-23T20:31:23.636Z,35.80
2022-12-23T20:33:52.652Z,35.90
2022-12-23T20:36:26.893Z,35.91
2022-12-23T20:38:53.584Z,37.18
2022-12-23T20:41:25.045Z,36.73
2022-12-23T20:44:31.677Z,35.48
2022-12-23T20:46:43.661Z,34.77
2022-12-23T20:49:12.653Z,34.09
2022-12-23T20:51:40.817Z,33.30
2022-12-23T20:54:07.849Z,32.81
2022-12-23T20:56:34.228Z,32.60
2022-12-23T20:59:03.539Z,31.86
2022-12-23T21:01:41.643Z,31.38
2022-12-23T21:04:13.471Z,31.04
2022-12-23T21:06:50.931Z,31.11
2022-12-23T21:09:19.089Z,30.28
2022-12-23T21:11:47.764Z,29.88
2022-12-23T21:14:16.536Z,30.50
2022-12-23T21:16:43.783Z,30.85
2022-12-23T21:19:22.467Z,30.65
2022-12-23T21:21:51.627Z,30.16
2022-12-23T21:24:19.783Z,29.72
2022-12-23T21:26:55.408Z,29.90
2022-12-23T21:29:25.579Z,29.88
2022-12-23T21:31:52.493Z,29.32
2022-12-23T21:34:20.481Z,29.15
2022-12-23T21:36:46.894Z,29.88
2022-12-23T21:39:16.354Z,30.40
2022-12-23T21:41:45.231Z,30.86
2022-12-23T21:44:15.663Z,30.95
2022-12-23T21:46:42.913Z,32.03
2022-12-23T21:49:12.624Z,32.31
2022-12-23T21:51:41.055Z,33.32
2022-12-23T21:54:11.656Z,33.74
2022-12-23T21:56:39.908Z,33.76
2022-12-23T21:59:14.589Z,33.10
2022-12-23T22:01:43.795Z,33.06
2022-12-23T22:04:12.095Z,32.61
2022-12-23T22:06:44.447Z,32.15
2022-12-23T22:09:16.268Z,31.28
2022-12-23T22:11:43.880Z,31.22
2022-12-23T22:14:14.315Z,31.07
2022-12-23T22:16:42.765Z,31.51
2022-12-23T22:19:12.215Z,31.99
2022-12-23T22:21:39.083Z,32.21
2022-12-23T22:24:06.509Z,32.21
2022-12-23T22:26:38.230Z,32.32
2022-12-23T22:29:11.844Z,32.08
2022-12-23T22:31:50.753Z,31.57
2022-12-23T22:34:21.973Z,31.44
2022-12-23T22:36:49.965Z,30.97
2022-12-23T22:39:21.710Z,30.76
2022-12-23T22:41:50.778Z,30.52
2022-12-23T22:44:19.515Z,30.58
2022-12-23T22:46:48.228Z,30.67
2022-12-23T22:49:15.999Z,30.63
2022-12-23T22:51:44.668Z,31.26
2022-12-23T22:54:26.573Z,31.73
2022-12-23T22:56:52.975Z,31.71
2022-12-23T22:59:24.238Z,31.37
2022-12-23T23:01:53.183Z,30.95
2022-12-23T23:04:19.640Z,30.68
2022-12-23T23:06:55.302Z,30.60
2022-12-23T23:09:24.573Z,30.77
2022-12-23T23:11:53.644Z,30.75
2022-12-23T23:14:20.992Z,30.82
2022-12-23T23:16:48.636Z,30.46
2022-12-23T23:19:15.901Z,30.24
2022-12-23T23:21:43.333Z,30.94
2022-12-23T23:24:13.011Z,30.78
2022-12-23T23:26:40.058Z,31.29
2022-12-23T23:29:07.846Z,31.43
2022-12-23T23:31:43.351Z,32.57
2022-12-23T23:34:12.512Z,32.96
2022-12-23T23:36:41.329Z,32.79
2022-12-23T23:39:11.446Z,33.91
2022-12-23T23:41:38.955Z,34.53
2022-12-23T23:44:06.266Z,34.47
2022-12-23T23:46:33.998Z,34.62
2022-12-23T23:49:00.573Z,34.82
2022-12-23T23:51:28.689Z,34.44
2022-12-23T23:53:55.621Z,34.36
2022-12-23T23:56:25.820Z,34.56
2022-12-23T23:58:55.761Z,34.50
